Time;durP1;ratioP1;P1;durP2;ratioP2;P2;SDS_P1;SDS_P2;PMS_P1;PMS_P2;Temp;Humidity;BMP_temperature;BMP_pressure;BME280_temperature;BME280_humidity;BME280_pressure;Samples;Min_cycle;Max_cycle;Signal;HPM_P1;HPM_P2
2022/06/30 00:00:39;;;;;;;6.13;5.20;;;17.50;99.90;;;;;;5095729;28;20201;-73
2022/06/30 00:03:05;;;;;;;7.67;4.80;;;17.50;99.90;;;;;;5096114;28;20274;-73
2022/06/30 00:05:31;;;;;;;6.00;5.40;;;17.50;99.90;;;;;;5077394;28;20664;-73
2022/06/30 00:07:56;;;;;;;5.80;5.23;;;17.50;99.90;;;;;;5077460;28;20174;-74
2022/06/30 00:10:22;;;;;;;7.03;5.47;;;17.40;99.90;;;;;;5095474;28;20179;-74
2022/06/30 00:12:48;;;;;;;7.80;5.27;;;17.40;99.90;;;;;;5095449;28;20170;-73
2022/06/30 00:15:14;;;;;;;7.27;5.20;;;17.40;99.90;;;;;;5095328;28;20705;-74
2022/06/30 00:17:39;;;;;;;5.80;5.23;;;17.40;99.90;;;;;;5095447;28;20174;-73
2022/06/30 00:20:05;;;;;;;8.80;5.97;;;17.40;99.90;;;;;;5077230;28;20174;-73
2022/06/30 00:22:31;;;;;;;7.20;5.93;;;17.40;99.90;;;;;;5095825;28;20285;-74
2022/06/30 00:24:56;;;;;;;5.97;5.30;;;17.30;99.90;;;;;;5095321;28;20241;-74
2022/06/30 00:27:22;;;;;;;7.27;5.00;;;17.30;99.90;;;;;;5095173;28;20198;-73
2022/06/30 00:29:47;;;;;;;6.50;5.57;;;17.30;99.90;;;;;;5095039;28;20163;-73
2022/06/30 00:32:13;;;;;;;6.80;5.90;;;17.30;99.90;;;;;;5095432;28;20181;-73
2022/06/30 00:34:38;;;;;;;5.80;5.20;;;17.30;99.90;;;;;;5095377;28;20547;-72
2022/06/30 00:37:04;;;;;;;5.70;5.20;;;17.20;99.90;;;;;;5095225;28;20541;-73
2022/06/30 00:39:30;;;;;;;6.07;5.47;;;17.30;99.90;;;;;;5095454;28;20177;-73
2022/06/30 00:41:56;;;;;;;6.23;5.73;;;17.20;99.90;;;;;;5095091;28;20206;-73
2022/06/30 00:44:22;;;;;;;7.77;5.30;;;17.30;99.90;;;;;;5094937;28;20172;-73
2022/06/30 00:46:48;;;;;;;6.27;5.27;;;17.20;99.90;;;;;;5094924;28;20183;-75
2022/06/30 00:49:16;;;;;;;5.67;5.07;;;17.20;99.90;;;;;;5094860;28;20697;-74
2022/06/30 00:51:42;;;;;;;5.57;5.07;;;17.20;99.90;;;;;;5076692;28;20177;-73
2022/06/30 00:54:07;;;;;;;5.63;5.13;;;17.10;99.90;;;;;;5095124;28;20170;-73
2022/06/30 00:56:34;;;;;;;6.00;4.90;;;17.10;99.90;;;;;;5095010;28;20187;-73
2022/06/30 00:59:04;;;;;;;11.27;5.80;;;17.10;99.90;;;;;;5095032;28;20169;-75
2022/06/30 01:01:32;;;;;;;7.40;5.10;;;17.10;99.90;;;;;;5094408;28;20167;-74
2022/06/30 01:03:59;;;;;;;7.13;5.53;;;17.10;99.90;;;;;;5094526;28;20178;-73
2022/06/30 01:06:26;;;;;;;5.70;5.20;;;17.00;99.90;;;;;;5076261;28;20191;-73
2022/06/30 01:08:51;;;;;;;6.00;5.40;;;17.00;99.90;;;;;;5094384;28;20223;-73
2022/06/30 01:14:02;;;;;;;7.10;6.40;;;17.00;99.90;;;;;;5094770;28;20208;-74
2022/06/30 01:16:28;;;;;;;6.07;5.33;;;17.00;99.90;;;;;;5094271;28;20220;-73
2022/06/30 01:18:54;;;;;;;6.27;5.60;;;17.00;99.90;;;;;;5076014;28;20206;-73
2022/06/30 01:21:19;;;;;;;6.00;5.40;;;17.00;99.90;;;;;;5094449;28;20170;-73
2022/06/30 01:23:45;;;;;;;6.60;6.00;;;16.90;99.90;;;;;;5094223;28;20209;-73
2022/06/30 01:26:11;;;;;;;7.03;5.53;;;16.90;99.90;;;;;;5094017;28;20613;-73
2022/06/30 01:28:36;;;;;;;6.63;5.93;;;16.90;99.90;;;;;;5075881;28;20265;-73
2022/06/30 01:31:02;;;;;;;7.90;5.80;;;16.90;99.90;;;;;;5094105;28;20177;-73
2022/06/30 01:33:28;;;;;;;6.40;5.70;;;16.90;99.90;;;;;;5094364;28;20224;-73
2022/06/30 01:35:56;;;;;;;6.10;5.53;;;16.90;99.90;;;;;;5075676;28;20198;-73
2022/06/30 01:38:21;;;;;;;5.90;5.30;;;16.80;99.90;;;;;;5093856;28;20174;-73
2022/06/30 01:40:48;;;;;;;6.33;5.73;;;16.80;99.90;;;;;;5075198;28;20231;-73
2022/06/30 01:43:13;;;;;;;6.03;5.37;;;16.80;99.90;;;;;;5075717;28;20289;-73
2022/06/30 01:45:40;;;;;;;6.43;5.80;;;16.80;99.90;;;;;;5094004;28;20224;-73
2022/06/30 01:48:06;;;;;;;7.30;5.80;;;16.80;99.90;;;;;;5075513;28;20173;-73
2022/06/30 01:50:32;;;;;;;6.73;6.03;;;16.70;99.90;;;;;;5093737;28;20173;-74
2022/06/30 01:52:59;;;;;;;6.33;5.73;;;16.70;99.90;;;;;;5093871;28;20198;-73
2022/06/30 01:55:25;;;;;;;6.17;5.57;;;16.70;99.90;;;;;;5075461;28;20223;-73
2022/06/30 01:57:51;;;;;;;8.10;5.50;;;16.70;99.90;;;;;;5093573;28;20189;-72
2022/06/30 02:00:23;;;;;;;6.63;5.77;;;16.70;99.90;;;;;;5093372;28;20177;-73
2022/06/30 02:02:49;;;;;;;7.83;6.20;;;16.70;99.90;;;;;;5093772;28;20183;-73
2022/06/30 02:05:15;;;;;;;8.70;5.67;;;16.60;99.90;;;;;;5075392;28;20525;-73
2022/06/30 02:07:41;;;;;;;9.73;5.87;;;16.60;99.90;;;;;;5093799;28;20599;-73
2022/06/30 02:10:10;;;;;;;8.50;5.97;;;16.60;99.90;;;;;;5075506;28;20201;-73
2022/06/30 02:12:45;;;;;;;7.63;6.30;;;16.60;99.90;;;;;;5075320;28;20173;-73
2022/06/30 02:15:15;;;;;;;9.13;6.37;;;16.60;99.90;;;;;;5093420;28;20677;-73
2022/06/30 02:17:41;;;;;;;8.97;6.73;;;16.50;99.90;;;;;;5093858;28;20197;-73
2022/06/30 02:20:08;;;;;;;7.97;7.20;;;16.50;99.90;;;;;;5093474;28;20174;-73
2022/06/30 02:22:35;;;;;;;7.20;6.43;;;16.50;99.90;;;;;;5093177;28;20217;-73
2022/06/30 02:25:02;;;;;;;9.73;6.77;;;16.50;99.90;;;;;;5093074;28;20181;-74
2022/06/30 02:27:27;;;;;;;7.27;6.57;;;16.50;99.90;;;;;;5093341;28;20174;-73
2022/06/30 02:29:53;;;;;;;8.47;7.10;;;16.50;99.90;;;;;;5093304;28;20551;-74
2022/06/30 02:32:19;;;;;;;9.53;7.17;;;16.50;99.90;;;;;;5093163;28;20213;-73
2022/06/30 02:34:45;;;;;;;7.93;7.13;;;16.50;99.90;;;;;;5093740;28;20167;-74
2022/06/30 02:37:10;;;;;;;6.57;5.97;;;16.50;99.90;;;;;;5093157;28;20614;-73
2022/06/30 02:39:36;;;;;;;7.77;6.57;;;16.50;99.90;;;;;;5093187;28;20176;-73
2022/06/30 02:42:02;;;;;;;7.13;6.27;;;16.40;99.90;;;;;;5093423;28;20202;-73
2022/06/30 02:44:27;;;;;;;9.50;6.70;;;16.40;99.90;;;;;;5074888;28;20167;-73
2022/06/30 02:46:54;;;;;;;7.37;6.67;;;16.40;99.90;;;;;;5093064;28;20185;-73
2022/06/30 02:49:21;;;;;;;7.60;6.87;;;16.40;99.90;;;;;;5093114;28;20227;-73
2022/06/30 02:51:47;;;;;;;7.13;6.47;;;16.40;99.90;;;;;;5094271;28;20163;-73
2022/06/30 02:54:13;;;;;;;7.77;7.00;;;16.40;99.90;;;;;;5096989;28;20241;-74
2022/06/30 02:56:39;;;;;;;6.97;6.00;;;16.30;99.90;;;;;;5077739;28;20289;-73
2022/06/30 02:59:04;;;;;;;7.90;6.77;;;16.30;99.90;;;;;;5097105;28;20166;-73
2022/06/30 03:01:30;;;;;;;8.07;7.27;;;16.40;99.90;;;;;;5078896;28;20174;-74
2022/06/30 03:03:55;;;;;;;7.93;7.10;;;16.30;99.90;;;;;;5079018;28;20602;-73
2022/06/30 03:06:21;;;;;;;7.60;6.40;;;16.30;99.90;;;;;;5097074;28;20191;-73
2022/06/30 03:08:46;;;;;;;7.97;7.13;;;16.30;99.90;;;;;;5096970;28;20659;-73
2022/06/30 03:11:18;;;;;;;8.53;7.37;;;16.30;99.90;;;;;;5097245;28;20265;-75
2022/06/30 03:13:45;;;;;;;8.67;7.40;;;16.30;99.90;;;;;;5096755;28;20617;-73
2022/06/30 03:16:11;;;;;;;7.73;6.93;;;16.40;99.90;;;;;;5097020;28;20273;-73
2022/06/30 03:18:37;;;;;;;9.70;7.83;;;16.30;99.90;;;;;;5096895;28;20572;-73
2022/06/30 03:21:02;;;;;;;9.37;7.17;;;16.30;99.90;;;;;;5096955;28;20245;-73
2022/06/30 03:23:28;;;;;;;9.70;7.17;;;16.30;99.90;;;;;;5096511;28;20613;-73
2022/06/30 03:25:53;;;;;;;8.23;6.10;;;16.30;99.90;;;;;;5096669;28;20206;-74
2022/06/30 03:28:19;;;;;;;7.53;6.47;;;16.20;99.90;;;;;;5097178;28;20166;-74
2022/06/30 03:30:47;;;;;;;9.03;6.97;;;16.20;99.90;;;;;;5097294;28;20166;-73
2022/06/30 03:33:13;;;;;;;7.93;6.00;;;16.30;99.90;;;;;;5096385;28;20178;-73
2022/06/30 03:35:39;;;;;;;7.53;6.67;;;16.20;99.90;;;;;;5096459;28;20202;-74
2022/06/30 03:38:04;;;;;;;6.93;6.30;;;16.20;99.90;;;;;;5096742;28;20174;-73
2022/06/30 03:40:30;;;;;;;6.77;6.10;;;16.30;99.90;;;;;;5096417;28;20179;-73
2022/06/30 03:42:56;;;;;;;7.70;6.40;;;16.20;99.90;;;;;;5096032;28;20675;-74
2022/06/30 03:45:21;;;;;;;8.27;6.00;;;16.10;99.90;;;;;;5096100;28;20768;-73
2022/06/30 03:47:47;;;;;;;7.77;6.53;;;16.10;99.90;;;;;;5096139;28;20166;-73
2022/06/30 03:50:12;;;;;;;6.70;6.07;;;16.10;99.90;;;;;;5096187;28;20198;-73
2022/06/30 03:52:38;;;;;;;8.17;6.30;;;16.10;99.90;;;;;;5077720;28;20178;-73
2022/06/30 03:55:04;;;;;;;8.47;7.53;;;16.10;99.90;;;;;;5077878;28;20174;-73
2022/06/30 03:57:29;;;;;;;9.00;6.17;;;16.10;99.90;;;;;;5096066;28;20170;-73
2022/06/30 03:59:55;;;;;;;8.60;6.13;;;16.10;99.90;;;;;;5095837;28;20200;-73
2022/06/30 04:02:20;;;;;;;8.23;6.17;;;16.10;99.90;;;;;;5096083;28;20198;-73
2022/06/30 04:04:46;;;;;;;6.87;6.17;;;16.10;99.90;;;;;;5095060;28;20197;-73
2022/06/30 04:07:11;;;;;;;7.77;6.60;;;16.10;99.90;;;;;;5095664;28;20280;-73
2022/06/30 04:09:37;;;;;;;7.07;6.17;;;16.10;99.90;;;;;;5095658;28;20239;-74
2022/06/30 04:12:03;;;;;;;9.07;6.80;;;16.10;99.90;;;;;;5095726;28;20704;-74
2022/06/30 04:14:28;;;;;;;8.23;6.07;;;16.10;99.90;;;;;;5095591;28;20199;-73
2022/06/30 04:16:54;;;;;;;7.90;7.07;;;16.10;99.90;;;;;;5095558;28;20194;-73
2022/06/30 04:19:19;;;;;;;9.63;6.67;;;16.10;99.90;;;;;;5078259;28;20178;-73
2022/06/30 04:21:45;;;;;;;10.33;5.80;;;16.10;99.90;;;;;;5095578;28;20244;-74
2022/06/30 04:24:10;;;;;;;6.87;6.17;;;16.10;99.90;;;;;;5095273;28;20174;-73
2022/06/30 04:26:36;;;;;;;7.03;6.33;;;16.10;99.90;;;;;;5072792;22;20227;-77
2022/06/30 04:29:02;;;;;;;8.10;6.77;;;16.10;99.90;;;;;;5034941;28;20168;-77
2022/06/30 04:34:11;;;;;;;9.07;7.40;;;16.10;99.90;;;;;;5035493;28;20211;-77
2022/06/30 04:36:37;;;;;;;9.73;7.40;;;16.00;99.90;;;;;;5017040;28;20196;-77
2022/06/30 04:39:02;;;;;;;7.87;7.03;;;16.10;99.90;;;;;;5035393;28;20172;-77
2022/06/30 04:41:28;;;;;;;9.93;8.50;;;16.10;99.90;;;;;;5035077;28;20180;-77
2022/06/30 04:43:58;;;;;;;9.43;7.57;;;16.10;99.90;;;;;;5017087;28;20204;-76
2022/06/30 04:46:24;;;;;;;9.43;8.07;;;16.10;99.90;;;;;;5034625;28;20200;-77
2022/06/30 04:48:50;;;;;;;9.07;8.17;;;16.10;99.90;;;;;;5035012;28;20176;-77
2022/06/30 04:51:16;;;;;;;9.27;7.37;;;16.20;99.90;;;;;;5034937;28;20173;-77
2022/06/30 04:53:42;;;;;;;9.73;7.07;;;16.20;99.90;;;;;;5016732;28;20176;-77
2022/06/30 04:56:09;;;;;;;8.37;7.00;;;16.20;99.90;;;;;;5016690;28;20196;-77
2022/06/30 04:58:35;;;;;;;9.40;7.40;;;16.20;99.90;;;;;;5034689;28;20180;-76
2022/06/30 05:01:01;;;;;;;7.90;7.10;;;16.30;99.90;;;;;;5034688;28;20188;-77
2022/06/30 05:03:27;;;;;;;10.03;7.47;;;16.30;99.90;;;;;;5034233;28;20203;-76
2022/06/30 05:05:53;;;;;;;8.13;7.33;;;16.30;99.90;;;;;;5034487;28;20220;-77
2022/06/30 05:08:20;;;;;;;10.97;7.67;;;16.30;99.90;;;;;;5034128;28;20250;-76
2022/06/30 05:10:45;;;;;;;9.10;8.20;;;16.30;99.90;;;;;;5034049;28;20176;-76
2022/06/30 05:13:11;;;;;;;11.10;8.67;;;16.30;99.90;;;;;;5034478;28;20173;-77
2022/06/30 05:15:36;;;;;;;9.47;7.97;;;16.40;99.90;;;;;;5033199;28;20183;-77
2022/06/30 05:18:02;;;;;;;10.90;9.80;;;16.50;99.90;;;;;;5034695;28;20176;-77
2022/06/30 05:20:28;;;;;;;12.97;9.80;;;16.50;99.90;;;;;;5015836;28;20172;-77
2022/06/30 05:22:54;;;;;;;11.50;9.63;;;16.60;99.90;;;;;;5015892;28;20694;-77
2022/06/30 05:28:04;;;;;;;11.37;10.17;;;16.70;99.90;;;;;;5034066;28;20247;-77
2022/06/30 05:30:29;;;;;;;13.27;11.83;;;16.80;99.90;;;;;;5035103;28;20192;-77
2022/06/30 05:32:56;;;;;;;14.27;11.53;;;16.90;99.90;;;;;;5033743;28;20187;-76
2022/06/30 05:35:21;;;;;;;13.80;12.40;;;17.10;99.90;;;;;;5015533;28;20230;-76
2022/06/30 05:37:48;;;;;;;13.97;12.10;;;17.20;99.90;;;;;;5015355;28;20294;-75
2022/06/30 05:40:13;;;;;;;15.37;12.97;;;17.30;99.90;;;;;;5033014;28;20173;-76
2022/06/30 05:42:39;;;;;;;14.33;12.67;;;17.40;99.90;;;;;;5032837;28;20311;-76
2022/06/30 05:45:05;;;;;;;16.17;13.43;;;17.50;99.90;;;;;;5015087;28;20666;-75
2022/06/30 05:47:30;;;;;;;17.83;12.57;;;17.60;99.90;;;;;;5032723;28;20243;-74
2022/06/30 05:49:56;;;;;;;17.00;13.47;;;17.80;99.90;;;;;;5033096;28;20172;-76
2022/06/30 05:52:21;;;;;;;17.20;14.33;;;18.00;99.90;;;;;;5032804;28;20617;-76
2022/06/30 05:54:47;;;;;;;15.07;13.47;;;17.90;99.90;;;;;;5014988;28;20183;-76
2022/06/30 05:57:13;;;;;;;19.77;14.03;;;18.00;99.90;;;;;;5032651;28;20661;-76
2022/06/30 05:59:38;;;;;;;17.43;13.27;;;18.10;99.90;;;;;;5032654;28;20241;-76
2022/06/30 06:02:04;;;;;;;15.67;12.57;;;18.20;99.90;;;;;;5014862;28;20207;-76
2022/06/30 06:04:30;;;;;;;18.07;13.40;;;18.30;99.90;;;;;;5014813;28;20173;-76
2022/06/30 06:06:55;;;;;;;15.70;13.53;;;18.40;99.90;;;;;;5015106;28;20196;-76
2022/06/30 06:09:21;;;;;;;16.97;13.00;;;18.60;99.90;;;;;;5015097;28;20180;-76
2022/06/30 06:11:46;;;;;;;20.00;12.40;;;18.60;99.90;;;;;;5014955;28;20215;-76
2022/06/30 06:14:12;;;;;;;14.30;12.03;;;18.80;99.90;;;;;;5032521;28;20211;-76
2022/06/30 06:16:38;;;;;;;15.90;12.50;;;18.80;99.90;;;;;;5032714;28;20234;-75
2022/06/30 06:19:03;;;;;;;14.07;11.73;;;18.90;99.90;;;;;;5032482;28;20173;-77
2022/06/30 06:21:29;;;;;;;13.63;11.10;;;19.00;99.90;;;;;;5032627;28;20183;-76
2022/06/30 06:23:54;;;;;;;13.23;10.17;;;19.10;99.90;;;;;;5032373;28;20249;-76
2022/06/30 06:26:20;;;;;;;12.30;10.23;;;19.20;99.90;;;;;;5033305;28;20589;-76
2022/06/30 06:31:40;;;;;;;14.50;9.27;;;19.30;99.90;;;;;;5039352;28;20171;-76
2022/06/30 06:34:06;;;;;;;9.80;8.80;;;19.40;99.90;;;;;;5039057;28;20522;-75
2022/06/30 06:36:32;;;;;;;11.50;8.10;;;19.50;99.90;;;;;;5021023;28;20283;-75
2022/06/30 06:38:59;;;;;;;9.77;7.43;;;19.50;99.90;;;;;;5038762;28;20176;-76
2022/06/30 06:41:25;;;;;;;9.03;8.07;;;19.60;99.90;;;;;;5020997;28;20527;-76
2022/06/30 06:43:51;;;;;;;8.27;7.27;;;19.80;99.90;;;;;;5038675;28;20211;-76
2022/06/30 06:46:17;;;;;;;10.83;7.80;;;19.90;99.90;;;;;;5020921;28;20204;-76
2022/06/30 06:48:43;;;;;;;12.07;7.80;;;20.00;99.90;;;;;;5038733;28;20638;-74
2022/06/30 06:51:09;;;;;;;14.43;8.20;;;20.10;99.90;;;;;;5039064;28;20172;-76
2022/06/30 06:53:36;;;;;;;8.70;7.57;;;20.20;99.90;;;;;;5021036;28;20187;-76
2022/06/30 06:56:02;;;;;;;8.27;7.10;;;20.20;99.90;;;;;;5038896;28;20303;-76
2022/06/30 06:58:27;;;;;;;9.07;7.63;;;20.20;99.90;;;;;;5038582;28;20689;-76
2022/06/30 07:00:54;;;;;;;6.90;6.00;;;20.30;99.90;;;;;;5038714;28;20642;-76
2022/06/30 07:03:20;;;;;;;10.03;4.93;;;20.60;99.90;;;;;;5038623;28;20234;-75
2022/06/30 07:05:46;;;;;;;5.47;4.57;;;20.80;1.00;;;;;;5038900;28;20188;-76
2022/06/30 07:08:11;;;;;;;9.60;4.77;;;20.90;1.00;;;;;;5020784;28;20209;-76
2022/06/30 07:10:37;;;;;;;6.17;3.80;;;21.10;1.00;;;;;;5038807;28;20180;-76
2022/06/30 07:13:02;;;;;;;5.10;4.17;;;21.30;99.90;;;;;;5038615;28;20212;-76
2022/06/30 07:15:28;;;;;;;6.63;4.60;;;21.30;1.00;;;;;;5038805;28;20184;-74
2022/06/30 07:17:54;;;;;;;4.93;4.30;;;21.50;99.90;;;;;;5020790;28;20184;-76
2022/06/30 07:20:19;;;;;;;8.03;4.77;;;21.50;99.90;;;;;;5038547;28;20186;-75
2022/06/30 07:22:45;;;;;;;4.87;4.10;;;21.50;58.90;;;;;;5038323;28;20674;-76
2022/06/30 07:25:11;;;;;;;5.27;3.50;;;21.50;99.90;;;;;;5038367;28;20581;-76
2022/06/30 07:27:37;;;;;;;7.27;3.67;;;21.40;1.00;;;;;;5020470;28;20218;-76
2022/06/30 07:30:03;;;;;;;8.90;5.17;;;21.40;99.90;;;;;;5020573;28;20702;-76
2022/06/30 07:32:29;;;;;;;6.17;4.37;;;21.50;1.00;;;;;;5038393;28;20266;-76
2022/06/30 07:34:54;;;;;;;11.93;5.07;;;21.50;1.00;;;;;;5020600;28;20630;-76
2022/06/30 07:37:20;;;;;;;8.80;4.83;;;21.50;99.90;;;;;;5038477;28;20230;-76
2022/06/30 07:39:46;;;;;;;6.07;3.90;;;21.70;1.00;;;;;;5034421;28;20189;-76
2022/06/30 07:42:11;;;;;;;7.43;4.40;;;21.80;25.10;;;;;;5035526;28;20210;-76
2022/06/30 07:44:37;;;;;;;7.13;4.60;;;21.80;1.00;;;;;;5035178;28;20229;-76
2022/06/30 07:47:02;;;;;;;5.93;3.93;;;21.90;99.90;;;;;;5019289;28;20196;-76
2022/06/30 07:49:28;;;;;;;6.40;4.00;;;22.00;1.00;;;;;;5035164;28;20210;-76
2022/06/30 07:51:53;;;;;;;5.07;3.57;;;22.00;1.00;;;;;;5035104;28;20178;-76
2022/06/30 07:54:19;;;;;;;7.23;3.40;;;22.10;1.00;;;;;;5035077;28;20176;-76
2022/06/30 07:56:45;;;;;;;9.20;4.13;;;22.30;11.10;;;;;;5035302;28;20219;-76
2022/06/30 07:59:11;;;;;;;4.83;3.27;;;22.20;99.90;;;;;;5034895;28;20200;-76
2022/06/30 08:01:37;;;;;;;5.67;3.27;;;22.20;1.00;;;;;;5034759;28;20242;-76
2022/06/30 08:04:03;;;;;;;4.80;3.47;;;22.40;99.90;;;;;;5035022;28;20612;-77
2022/06/30 08:06:28;;;;;;;7.63;2.80;;;22.40;1.00;;;;;;5016957;28;20342;-76
2022/06/30 08:08:55;;;;;;;5.17;3.00;;;22.50;1.00;;;;;;5017351;28;20271;-77
2022/06/30 08:11:21;;;;;;;11.90;3.63;;;22.50;1.00;;;;;;5016905;28;20184;-76
2022/06/30 08:13:47;;;;;;;6.53;3.33;;;22.70;1.00;;;;;;5034818;28;20230;-76
2022/06/30 08:16:13;;;;;;;3.03;2.30;;;22.80;1.00;;;;;;5034848;28;20200;-74
2022/06/30 08:18:39;;;;;;;4.07;2.33;;;22.80;1.00;;;;;;5035028;28;20638;-76
2022/06/30 08:21:04;;;;;;;7.40;2.70;;;22.90;1.00;;;;;;5034985;28;20177;-75
2022/06/30 08:23:30;;;;;;;5.30;2.60;;;23.00;99.90;;;;;;5034841;28;20196;-74
2022/06/30 08:25:56;;;;;;;9.63;3.97;;;23.10;1.00;;;;;;5034762;28;20662;-75
2022/06/30 08:28:21;;;;;;;5.00;3.53;;;23.20;99.50;;;;;;5017137;28;20172;-75
2022/06/30 08:30:50;;;;;;;8.93;3.90;;;23.20;99.90;;;;;;5034835;28;20179;-75
2022/06/30 08:33:16;;;;;;;8.20;4.93;;;23.20;1.00;;;;;;5034760;28;20172;-74
2022/06/30 08:35:41;;;;;;;9.03;5.30;;;23.30;99.90;;;;;;5035199;28;20586;-75
2022/06/30 08:38:07;;;;;;;9.83;5.03;;;23.40;1.00;;;;;;5034714;28;20177;-75
2022/06/30 08:43:19;;;;;;;12.50;5.53;;;23.40;99.90;;;;;;5034606;28;20267;-75
2022/06/30 08:45:45;;;;;;;12.43;5.10;;;23.40;99.90;;;;;;5016728;28;20183;-75
2022/06/30 08:48:12;;;;;;;6.37;3.23;;;23.50;99.90;;;;;;5016737;28;20172;-75
2022/06/30 08:50:42;;;;;;;3.60;2.73;;;23.50;99.90;;;;;;5016649;28;20178;-75
2022/06/30 08:53:09;;;;;;;10.07;3.43;;;23.70;1.00;;;;;;5034454;28;20188;-75
2022/06/30 08:55:36;;;;;;;6.77;2.97;;;23.90;19.90;;;;;;5034324;28;20607;-75
2022/06/30 08:58:07;;;;;;;9.07;2.97;;;23.90;99.90;;;;;;5016558;28;20211;-74
2022/06/30 09:00:38;;;;;;;6.93;3.63;;;23.90;76.80;;;;;;5016632;28;20642;-75
2022/06/30 09:03:04;;;;;;;8.47;3.30;;;24.00;99.90;;;;;;5034490;28;20192;-75
2022/06/30 09:05:31;;;;;;;6.30;2.83;;;24.00;99.90;;;;;;5016263;28;20597;-74
2022/06/30 09:07:57;;;;;;;6.47;2.83;;;24.10;99.90;;;;;;5015202;28;20654;-76
2022/06/30 09:10:24;;;;;;;5.83;2.80;;;24.10;99.90;;;;;;5034102;28;20191;-75
2022/06/30 09:13:02;;;;;;;4.07;2.70;;;24.20;84.50;;;;;;5034261;28;20202;-75
2022/06/30 09:15:37;;;;;;;4.43;3.10;;;24.30;1.00;;;;;;5033956;28;20180;-74
2022/06/30 09:18:03;;;;;;;9.47;2.73;;;24.40;1.00;;;;;;5034844;28;20176;-75
2022/06/30 09:20:47;;;;;;;12.53;3.10;;;24.40;51.80;;;;;;5034003;28;20191;-75
2022/06/30 09:23:19;;;;;;;8.87;2.80;;;24.50;1.00;;;;;;5016096;28;20230;-75
2022/06/30 09:25:50;;;;;;;6.53;2.70;;;24.60;99.90;;;;;;5033829;28;20176;-74
2022/06/30 09:28:36;;;;;;;4.27;2.63;;;24.80;1.00;;;;;;5034067;28;20172;-75
2022/06/30 09:31:02;;;;;;;7.33;2.67;;;25.00;1.00;;;;;;5033658;28;20180;-75
2022/06/30 09:33:35;;;;;;;5.40;2.83;;;25.00;99.90;;;;;;5015864;28;20176;-75
2022/06/30 09:36:23;;;;;;;6.30;2.87;;;25.10;99.90;;;;;;5033601;28;20196;-74
2022/06/30 09:39:07;;;;;;;7.87;2.70;;;25.20;1.00;;;;;;5033716;28;20208;-74
2022/06/30 09:41:35;;;;;;;5.77;2.70;;;25.20;1.00;;;;;;5033584;28;20634;-74
2022/06/30 09:44:04;;;;;;;7.53;2.80;;;25.30;1.00;;;;;;5015737;28;20295;-74
2022/06/30 09:46:30;;;;;;;3.80;2.75;;;25.30;1.00;;;;;;5015708;28;20568;-75
2022/06/30 09:48:56;;;;;;;7.03;2.97;;;25.50;1.00;;;;;;5033452;28;20168;-74
2022/06/30 09:51:21;;;;;;;8.40;3.63;;;25.50;1.00;;;;;;5033884;28;20707;-75
2022/06/30 09:54:09;;;;;;;19.45;4.30;;;25.70;1.00;;;;;;5033331;28;20550;-74
2022/06/30 09:56:35;;;;;;;5.93;2.90;;;25.70;1.00;;;;;;5015479;28;20204;-74
2022/06/30 09:59:03;;;;;;;6.22;2.55;;;25.80;1.00;;;;;;5033217;28;20322;-75
2022/06/30 10:01:49;;;;;;;4.38;2.08;;;25.80;99.90;;;;;;5033187;28;20207;-75
2022/06/30 10:04:17;;;;;;;4.97;2.40;;;25.90;99.90;;;;;;5033749;28;20167;-75
2022/06/30 10:06:42;;;;;;;8.07;2.80;;;26.00;1.00;;;;;;5015320;28;20206;-75
2022/06/30 10:09:09;;;;;;;7.65;2.72;;;26.10;1.00;;;;;;5033083;28;20176;-75
2022/06/30 10:11:36;;;;;;;7.32;2.58;;;26.10;99.90;;;;;;5033328;28;20204;-75
2022/06/30 10:14:02;;;;;;;6.10;2.55;;;26.30;18.40;;;;;;5033155;28;20176;-74
2022/06/30 10:16:29;;;;;;;6.43;3.40;;;26.30;1.00;;;;;;5033518;28;20196;-75
2022/06/30 10:18:55;;;;;;;18.00;3.80;;;26.30;1.00;;;;;;5032979;28;20199;-75
2022/06/30 10:21:21;;;;;;;7.82;3.45;;;26.40;1.00;;;;;;5015264;28;20180;-76
2022/06/30 10:23:48;;;;;;;5.57;2.65;;;26.30;51.20;;;;;;5015117;28;20230;-75
2022/06/30 10:28:58;;;;;;;7.22;2.90;;;26.40;1.00;;;;;;5053079;28;20167;-77
2022/06/30 10:31:41;;;;;;;7.95;3.08;;;26.40;73.70;;;;;;5035112;28;20171;-77
2022/06/30 10:34:15;;;;;;;5.32;2.65;;;26.50;99.90;;;;;;5035310;28;20622;-76
2022/06/30 10:37:25;;;;;;;10.40;3.55;;;26.60;99.90;;;;;;5034978;28;20199;-76
2022/06/30 10:39:52;;;;;;;6.95;3.40;;;26.70;1.00;;;;;;5016206;28;20195;-76
2022/06/30 10:42:47;;;;;;;10.27;4.07;;;26.70;1.00;;;;;;5054200;28;20227;-77
2022/06/30 10:45:31;;;;;;;16.17;4.22;;;26.70;1.00;;;;;;5052901;28;20247;-77
2022/06/30 10:48:04;;;;;;;7.47;2.80;;;26.70;1.00;;;;;;5035155;28;20558;-77
2022/06/30 10:50:42;;;;;;;9.23;2.90;;;26.80;1.00;;;;;;5034928;28;20168;-77
2022/06/30 10:53:09;;;;;;;3.58;2.42;;;26.90;1.00;;;;;;5052569;28;20163;-76
2022/06/30 10:55:45;;;;;;;8.82;2.50;;;26.90;1.00;;;;;;5052476;28;20251;-76
2022/06/30 10:58:11;;;;;;;8.85;2.60;;;26.90;1.00;;;;;;5052489;28;20709;-76
2022/06/30 11:00:50;;;;;;;6.45;2.20;;;26.90;1.00;;;;;;5052682;28;20180;-76
2022/06/30 11:03:34;;;;;;;4.03;1.92;;;27.00;1.00;;;;;;5052451;28;20285;-77
2022/06/30 11:06:12;;;;;;;6.53;2.78;;;27.00;95.20;;;;;;5052719;28;20163;-75
2022/06/30 11:08:47;;;;;;;5.28;1.90;;;27.00;1.00;;;;;;5052571;28;20229;-76
2022/06/30 11:11:22;;;;;;;3.38;1.75;;;27.10;31.70;;;;;;5034595;28;20537;-76
2022/06/30 11:14:01;;;;;;;2.78;1.80;;;27.20;53.50;;;;;;5053383;28;20178;-76
2022/06/30 11:16:27;;;;;;;8.68;2.45;;;27.10;17.40;;;;;;5056546;28;20191;-76
2022/06/30 11:18:53;;;;;;;2.92;1.60;;;27.10;99.90;;;;;;5056198;28;20170;-76
2022/06/30 11:21:19;;;;;;;4.47;2.10;;;27.10;1.00;;;;;;5056242;28;20578;-76
2022/06/30 11:23:46;;;;;;;6.70;2.30;;;27.20;1.00;;;;;;5056194;28;20225;-77
2022/06/30 11:28:59;;;;;;;6.35;1.98;;;27.20;1.00;;;;;;5056229;28;20162;-76
2022/06/30 11:31:29;;;;;;;5.78;2.42;;;27.20;50.50;;;;;;5055726;28;20163;-75
2022/06/30 11:34:01;;;;;;;5.63;2.08;;;27.20;1.00;;;;;;5055736;28;20171;-75
2022/06/30 11:36:26;;;;;;;1.95;1.70;;;27.30;1.00;;;;;;5037780;28;20210;-76
2022/06/30 11:39:06;;;;;;;3.53;2.10;;;27.30;99.90;;;;;;5055814;28;20172;-75
2022/06/30 11:44:18;;;;;;;5.20;1.90;;;27.30;99.90;;;;;;5055700;28;20162;-76
2022/06/30 11:46:55;;;;;;;8.52;1.80;;;27.20;99.90;;;;;;5037633;28;20282;-75
2022/06/30 11:49:22;;;;;;;7.00;2.65;;;27.20;99.90;;;;;;5055708;28;20156;-77
2022/06/30 11:51:48;;;;;;;5.95;2.13;;;27.20;99.90;;;;;;5055678;28;20175;-76
2022/06/30 11:54:15;;;;;;;5.50;2.47;;;27.30;99.90;;;;;;5037531;28;20187;-77
2022/06/30 11:56:46;;;;;;;5.93;2.20;;;27.20;99.90;;;;;;5037410;28;20286;-77
2022/06/30 11:59:12;;;;;;;4.68;2.20;;;27.30;99.90;;;;;;5055401;28;20564;-76
2022/06/30 12:01:37;;;;;;;3.67;2.08;;;27.30;99.90;;;;;;5037455;28;20210;-76
2022/06/30 12:04:15;;;;;;;2.65;1.98;;;27.30;99.90;;;;;;5037336;28;20660;-76
2022/06/30 12:06:41;;;;;;;4.05;2.10;;;27.30;99.90;;;;;;5055693;28;20282;-76
2022/06/30 12:09:08;;;;;;;6.15;2.30;;;27.30;99.90;;;;;;5055438;28;20168;-76
2022/06/30 12:11:35;;;;;;;7.75;2.38;;;27.30;99.90;;;;;;5037540;28;20634;-76
2022/06/30 12:14:01;;;;;;;5.15;2.30;;;27.40;99.90;;;;;;5055177;28;20171;-75
2022/06/30 12:16:27;;;;;;;5.03;2.08;;;27.50;99.90;;;;;;5055376;28;20211;-76
2022/06/30 12:18:52;;;;;;;4.80;2.22;;;27.50;99.90;;;;;;5055818;28;20656;-75
2022/06/30 12:21:18;;;;;;;5.68;2.50;;;27.60;99.90;;;;;;5037152;28;20546;-76
2022/06/30 12:23:45;;;;;;;3.83;2.60;;;27.70;99.90;;;;;;5055077;28;20286;-77
2022/06/30 12:26:11;;;;;;;4.40;2.05;;;27.70;99.90;;;;;;5054276;28;20164;-75
2022/06/30 12:28:48;;;;;;;5.55;2.17;;;27.80;99.90;;;;;;5036917;28;20171;-75
2022/06/30 12:31:23;;;;;;;5.07;2.05;;;27.90;99.90;;;;;;5055139;28;20148;-75
2022/06/30 12:33:50;;;;;;;2.70;2.08;;;27.90;99.90;;;;;;5036750;28;20175;-75
2022/06/30 12:36:16;;;;;;;6.32;2.63;;;27.90;99.90;;;;;;5054744;28;20598;-77
2022/06/30 12:38:42;;;;;;;4.72;3.08;;;28.00;99.90;;;;;;5054990;28;20199;-76
2022/06/30 12:41:10;;;;;;;5.28;1.65;;;28.10;99.90;;;;;;5054692;28;20184;-75
2022/06/30 12:43:50;;;;;;;5.63;1.80;;;28.10;99.90;;;;;;5055046;28;20809;-76
2022/06/30 12:46:17;;;;;;;5.25;1.77;;;28.20;99.90;;;;;;5038184;28;20258;-77
2022/06/30 12:48:50;;;;;;;4.25;1.92;;;28.20;99.90;;;;;;5055558;28;20633;-76
2022/06/30 12:51:27;;;;;;;4.80;1.63;;;28.20;99.90;;;;;;5039114;28;20562;-77
2022/06/30 12:54:04;;;;;;;4.57;1.67;;;28.20;99.90;;;;;;5038325;28;20183;-77
2022/06/30 12:56:30;;;;;;;2.42;1.60;;;28.30;99.90;;;;;;5056459;28;20191;-77
2022/06/30 12:59:05;;;;;;;2.83;2.28;;;28.40;99.90;;;;;;5055168;28;20183;-77
2022/06/30 13:01:36;;;;;;;2.83;1.70;;;28.40;99.90;;;;;;5056742;28;20198;-78
2022/06/30 13:04:02;;;;;;;2.58;1.50;;;28.50;99.90;;;;;;5056920;28;20214;-77
2022/06/30 13:06:30;;;;;;;7.10;2.15;;;28.60;99.90;;;;;;5038419;28;20300;-77
2022/06/30 13:08:56;;;;;;;3.67;1.90;;;28.60;99.90;;;;;;5057254;28;20238;-77